Time;durP1;ratioP1;P1;durP2;ratioP2;P2;SDS_P1;SDS_P2;PMS_P1;PMS_P2;Temp;Humidity;BMP_temperature;BMP_pressure;BME280_temperature;BME280_humidity;BME280_pressure;Samples;Min_cycle;Max_cycle;Signal;HPM_P1;HPM_P2
2019/04/06 09:29:01;;;;;;;17.4;5.9;;;;;;;;;;;;;
2019/04/06 09:45:44;;;;;;;40.5;30.5;;;;;;;14.49;52.59766;948.9258;;;;
2019/04/06 09:48:11;;;;;;;42.2;31.6;;;;;;;14.42;52.70117;948.8401;;;;
2019/04/06 09:50:36;;;;;;;40.1;30.7;;;;;;;14.55;52.23535;948.8455;;;;
2019/04/06 09:53:03;;;;;;;42.9;31.5;;;;;;;14.42;51.91602;948.8233;;;;
2019/04/06 09:56:36;;;;;;;41;30.8;;;;;;;14.03;53.0459;948.787;;;;
2019/04/06 10:01:29;;;;;;;43.4;31.8;;;;;;;14.11;53.57129;948.7436;;;;
2019/04/06 10:08:44;;;;;;;40.1;29.4;;;;;;;14.97;50.57715;948.674;;;;
2019/04/06 10:13:45;;;;;;;40.7;30;;;;;;;14.98;51.54492;948.6453;;;;
2019/04/06 10:17:12;;;;;;;42.3;30.2;;;;;;;14.47;52.06836;948.6116;;;;
2019/04/06 10:20:50;;;;;;;44;30.8;;;;;;;14.03;53.85254;948.5826;;;;
2019/04/06 10:23:49;;;;;;;39.5;28.9;;;;;;;14.3;52.66504;948.6124;;;;
2019/04/06 10:28:10;;;;;;;39.1;25.8;;;;;;;13.53;54.26172;948.5707;;;;
2019/04/06 10:32:53;;;;;;;37.1;27.9;;;;;;;14.15;53.10547;948.4586;;;;
2019/04/06 10:35:35;;;;;;;35.7;25.9;;;;;;;14.25;52.33301;948.4258;;;;
2019/04/06 10:38:32;;;;;;;39.3;28.1;;;;;;;14.23;52.56641;948.5022;;;;
2019/04/06 10:40:17;;;;;;;38;28;;;;;;;15.01;51.64941;948.3845;;;;
2019/04/06 10:45:07;;;;;;;37.1;25.9;;;;;;;14.52;51.5918;948.3736;;;;
2019/04/06 10:47:38;;;;;;;35.4;24.8;;;;;;;14.69;50.97168;948.35;;;;
2019/04/06 10:50:00;;;;;;;33.1;24.2;;;;;;;14.21;51.67773;948.3367;;;;
2019/04/06 10:54:44;;;;;;;32;24.4;;;;;;;14.18;51.88867;948.2845;;;;
2019/04/06 10:57:51;;;;;;;33.6;25.6;;;;;;;14.01;53.16699;948.2084;;;;
2019/04/06 10:59:44;;;;;;;34.2;24.8;;;;;;;14.17;53.30859;948.218;;;;
2019/04/06 11:04:19;;;;;;;28.5;20.9;;;;;;;14.01;52.31641;948.1811;;;;
2019/04/06 11:09:13;;;;;;;31.2;22.1;;;;;;;14.55;51.74121;948.1156;;;;
2019/04/06 11:11:49;;;;;;;26.6;20.9;;;;;;;14.92;50.30273;948.0906;;;;
2019/04/06 11:20:24;;;;;;;24.9;19.2;;;;;;;14.72;50.61523;948.0803;;;;
2019/04/06 11:21:38;;;;;;;25.4;20.2;;;;;;;14.46;51.62988;947.9313;;;;
2019/04/06 11:23:57;;;;;;;25.9;20.6;;;;;;;14.63;51.28906;947.9128;;;;
2019/04/06 11:26:20;;;;;;;26;20.9;;;;;;;14.56;51.24805;947.885;;;;
2019/04/06 11:28:35;;;;;;;26.2;20.2;;;;;;;14.56;51.7207;947.9489;;;;
2019/04/06 11:33:26;;;;;;;24.7;18.8;;;;;;;15.55;48.15918;947.7645;;;;
2019/04/06 11:37:42;;;;;;;23.2;18;;;;;;;15.7;47.16406;947.8304;;;;
2019/04/06 11:38:36;;;;;;;23.7;18.3;;;;;;;15.97;46.69727;947.741;;;;
2019/04/06 11:40:58;;;;;;;23.4;18.3;;;;;;;16.45;46.18652;947.7411;;;;
2019/04/06 11:43:16;;;;;;;22.5;17.7;;;;;;;15.66;47.18164;947.7457;;;;
2019/04/06 11:48:48;;;;;;;22.9;17.6;;;;;;;15.64;47.37109;947.6919;;;;
2019/04/06 11:51:21;;;;;;;23.9;18.4;;;;;;;15.63;46.25684;947.7467;;;;
2019/04/06 11:53:28;;;;;;;23.5;18.3;;;;;;;15.3;47.30078;947.8226;;;;
2019/04/06 11:55:30;;;;;;;24;19.5;;;;;;;15.13;48.03418;947.7434;;;;
2019/04/06 11:57:46;;;;;;;24.2;18.5;;;;;;;15.72;46.94043;947.6663;;;;
2019/04/06 12:00:24;;;;;;;23.2;18.2;;;;;;;16.09;46.81152;947.7255;;;;
2019/04/06 12:04:55;;;;;;;25.4;19.6;;;;;;;16.1;46.59961;947.7711;;;;
2019/04/06 12:07:35;;;;;;;24.7;19.3;;;;;;;15.08;48.90625;947.8596;;;;
2019/04/06 12:10:25;;;;;;;26.9;21.9;;;;;;;14.96;49.2627;947.7714;;;;
2019/04/06 12:12:10;;;;;;;32.8;21.8;;;;;;;14.83;49.84277;947.7186;;;;
2019/04/06 12:14:36;;;;;;;26.5;20.3;;;;;;;14.82;50.52637;947.729;;;;
2019/04/06 12:17:41;;;;;;;30.7;22.3;;;;;;;15.33;48.91113;947.666;;;;
2019/04/06 12:28:16;;;;;;;28.3;20.5;;;;;;;15.15;49.9248;947.6221;;;;
2019/04/06 12:33:16;;;;;;;29.9;22.3;;;;;;;15.84;47.06641;947.755;;;;
2019/04/06 12:38:11;;;;;;;26.7;19.2;;;;;;;15.37;47.64551;947.6676;;;;
2019/04/06 12:40:45;;;;;;;24.7;18.9;;;;;;;15.53;47.97754;947.6719;;;;
2019/04/06 12:48:28;;;;;;;21.7;17.5;;;;;;;15.51;47.81836;947.7581;;;;
2019/04/06 12:50:53;;;;;;;22.5;18.2;;;;;;;15.38;48.70215;947.7707;;;;
2019/04/06 13:05:26;;;;;;;18.4;14.9;;;;;;;16.35;46.04004;947.6236;;;;
2019/04/06 13:12:42;;;;;;;19.9;17.2;;;;;;;15.98;47.19531;947.6691;;;;
2019/04/06 13:17:39;;;;;;;19.9;16.5;;;;;;;16.08;47.49707;947.5922;;;;
2019/04/06 13:19:59;;;;;;;20.7;16.7;;;;;;;15.98;48.04883;947.622;;;;
2019/04/06 13:22:29;;;;;;;19.1;17.1;;;;;;;16.21;47.98438;947.4733;;;;
2019/04/06 13:34:06;;;;;;;17.9;16;;;;;;;16.23;47.1416;947.5661;;;;
2019/04/06 13:38:31;;;;;;;19;16;;;;;;;16.28;46.60742;947.5661;;;;
2019/04/06 13:40:29;;;;;;;18.4;15.7;;;;;;;16.75;46.86035;947.4322;;;;
2019/04/06 13:43:31;;;;;;;16.8;15;;;;;;;16.7;45.93066;947.3943;;;;
2019/04/06 13:45:27;;;;;;;18;15;;;;;;;16.45;46.27539;947.4456;;;;
2019/04/06 13:51:13;;;;;;;16.9;14.6;;;;;;;16.42;47.4668;947.4066;;;;
2019/04/06 13:53:56;;;;;;;16.9;15.1;;;;;;;16.48;47.19141;947.3356;;;;
2019/04/06 14:02:14;;;;;;;15.6;13.9;;;;;;;16.27;46.68555;947.3318;;;;
2019/04/06 14:04:45;;;;;;;21.1;14.7;;;;;;;16.66;45.8125;947.3223;;;;
2019/04/06 14:06:58;;;;;;;17.1;14.1;;;;;;;16.36;46.57031;947.3438;;;;
2019/04/06 14:12:53;;;;;;;15.5;13.8;;;;;;;16.61;46.22461;947.2478;;;;
2019/04/06 14:14:34;;;;;;;15.6;13.6;;;;;;;16.5;47.30664;947.2639;;;;
2019/04/06 14:17:00;;;;;;;16;13.7;;;;;;;16.23;47.28809;947.2838;;;;
2019/04/06 14:26:36;;;;;;;16.5;13.4;;;;;;;16.06;48.20508;947.3333;;;;
2019/04/06 14:33:50;;;;;;;15.1;12.1;;;;;;;16.85;46.92676;947.1758;;;;
2019/04/06 14:36:31;;;;;;;16.4;13.1;;;;;;;16.87;46.26367;947.1992;;;;
2019/04/06 14:38:49;;;;;;;15.9;12.5;;;;;;;16.67;46.58105;947.2111;;;;
2019/04/06 14:41:14;;;;;;;14.3;12.4;;;;;;;16.59;46.75293;947.2258;;;;
2019/04/06 14:43:32;;;;;;;14.4;12.4;;;;;;;16.58;46.70605;947.2833;;;;
2019/04/06 14:47:07;;;;;;;15.1;12.5;;;;;;;16.41;45.91016;947.3789;;;;
2019/04/06 14:51:13;;;;;;;20.3;12.3;;;;;;;15.98;47.27246;947.2823;;;;
2019/04/06 14:53:25;;;;;;;16.7;13.3;;;;;;;16.2;46.93652;947.2875;;;;
2019/04/06 14:55:53;;;;;;;15.5;13.3;;;;;;;16.11;47.26367;947.2288;;;;
2019/04/06 15:01:09;;;;;;;15.3;12.7;;;;;;;16.09;47.42969;947.2512;;;;
2019/04/06 15:04:14;;;;;;;15.5;12.9;;;;;;;16.27;47.10156;947.2326;;;;
2019/04/06 15:10:46;;;;;;;14.2;12.8;;;;;;;16.38;46.59473;947.0967;;;;
2019/04/06 15:12:57;;;;;;;15;12.6;;;;;;;16.23;47.11914;947.2693;;;;
2019/04/06 15:15:26;;;;;;;14.5;12.5;;;;;;;16.2;47.27441;947.3006;;;;
2019/04/06 15:17:50;;;;;;;17.1;13.4;;;;;;;16.13;47.58105;947.23;;;;
2019/04/06 15:20:09;;;;;;;17.6;13.9;;;;;;;16.48;46.83105;947.2311;;;;
2019/04/06 15:22:58;;;;;;;15.3;12.1;;;;;;;15.91;47.27734;947.3293;;;;
2019/04/06 15:25:02;;;;;;;14.4;12.1;;;;;;;16.04;47.62793;947.2197;;;;
2019/04/06 15:27:36;;;;;;;14.6;11.9;;;;;;;16.38;46.76465;947.2;;;;
2019/04/06 15:30:08;;;;;;;16.6;12.8;;;;;;;16.2;46.86914;947.149;;;;
2019/04/06 15:35:02;;;;;;;15.2;12.3;;;;;;;16.23;46.47754;947.0355;;;;
2019/04/06 15:37:14;;;;;;;15.9;12.6;;;;;;;16.65;45.51855;946.989;;;;
2019/04/06 15:41:59;;;;;;;13.5;11.4;;;;;;;16.33;45.98145;947.0129;;;;
2019/04/06 15:47:33;;;;;;;16.3;11.5;;;;;;;16.33;45.50879;947.0875;;;;
2019/04/06 15:49:26;;;;;;;11.5;9.7;;;;;;;16.27;44.3877;946.9791;;;;
2019/04/06 15:54:10;;;;;;;11.7;9.6;;;;;;;16.34;44.74316;947.0626;;;;
2019/04/06 15:56:36;;;;;;;13.1;9.9;;;;;;;16.22;45.54297;946.9793;;;;
2019/04/06 16:02:11;;;;;;;12.4;10.3;;;;;;;15.93;46.25488;947.0422;;;;
2019/04/06 16:04:41;;;;;;;14.4;10.3;;;;;;;15.81;45.93848;947.0369;;;;
2019/04/06 16:07:11;;;;;;;15.8;10.6;;;;;;;15.69;46.35254;946.94;;;;
2019/04/06 16:12:12;;;;;;;11.1;9.9;;;;;;;15.5;47.40137;947.019;;;;
2019/04/06 16:17:15;;;;;;;14.3;10.4;;;;;;;15.5;47.7373;946.9498;;;;
2019/04/06 16:19:42;;;;;;;13.4;10;;;;;;;15.41;47.60449;947.0606;;;;
2019/04/06 16:24:47;;;;;;;15.3;11.9;;;;;;;15.28;48.69141;946.9611;;;;
2019/04/06 16:27:01;;;;;;;18.9;11.7;;;;;;;15.35;48.49707;947.0017;;;;
2019/04/06 16:36:21;;;;;;;14;11.8;;;;;;;15.15;49.58789;947.0742;;;;
2019/04/06 16:38:44;;;;;;;14.6;11.5;;;;;;;15.35;49.33984;947.0356;;;;
2019/04/06 16:41:22;;;;;;;12.4;11.1;;;;;;;15.2;50.03125;947.0575;;;;
2019/04/06 16:46:35;;;;;;;15.9;11.1;;;;;;;15.55;48.75586;947.0375;;;;
2019/04/06 17:08:37;;;;;;;13;10.5;;;;;;;14.99;49.65918;947.1011;;;;
2019/04/06 17:10:21;;;;;;;18.3;14.4;;;;;;;14.88;49.8252;947.1373;;;;
2019/04/06 17:15:18;;;;;;;13.3;10.3;;;;;;;14.81;49.90918;947.1475;;;;
2019/04/06 17:20:41;;;;;;;12.1;10.2;;;;;;;14.68;50.31934;947.1702;;;;
2019/04/06 17:22:29;;;;;;;13.3;10.3;;;;;;;14.79;50.08691;947.0637;;;;
2019/04/06 17:24:58;;;;;;;12.2;10.3;;;;;;;14.75;50.35059;947.0977;;;;
2019/04/06 17:32:13;;;;;;;13.4;10.9;;;;;;;14.67;50.44141;947.1364;;;;
2019/04/06 17:37:10;;;;;;;15.6;10.7;;;;;;;14.65;50.54102;947.0878;;;;
2019/04/06 17:39:39;;;;;;;14.3;10.7;;;;;;;14.5;50.91602;947.1769;;;;
2019/04/06 17:41:57;;;;;;;13;10.2;;;;;;;14.67;50.30762;947.1364;;;;
2019/04/06 17:45:08;;;;;;;14.5;11.6;;;;;;;14.8;49.88477;947.1501;;;;
2019/04/06 17:47:31;;;;;;;16.1;12.7;;;;;;;14.75;49.99121;947.1928;;;;
2019/04/06 17:52:34;;;;;;;13.5;11.2;;;;;;;14.5;50.42285;947.2382;;;;
2019/04/06 17:54:21;;;;;;;14.8;10.8;;;;;;;14.32;50.89453;947.2512;;;;
2019/04/06 18:01:22;;;;;;;14.8;11.6;;;;;;;14.33;51.42285;947.2917;;;;
2019/04/06 18:04:04;;;;;;;13.8;11.4;;;;;;;13.91;52.1123;947.2911;;;;
2019/04/06 18:06:09;;;;;;;14.2;11.5;;;;;;;13.98;51.89746;947.2227;;;;
2019/04/06 18:08:38;;;;;;;17;11.8;;;;;;;13.59;52.94824;947.3077;;;;
2019/04/06 18:11:17;;;;;;;14.2;11.7;;;;;;;13.7;52.79297;947.3127;;;;
2019/04/06 18:15:40;;;;;;;14.8;12.1;;;;;;;13.58;52.84668;947.3739;;;;
2019/04/06 18:18:06;;;;;;;15.5;11.8;;;;;;;13.59;52.58984;947.3948;;;;
2019/04/06 18:20:31;;;;;;;18.6;13.7;;;;;;;13.64;52.43848;947.4395;;;;
2019/04/06 18:22:56;;;;;;;14.4;11.2;;;;;;;13.49;52.47656;947.472;;;;
2019/04/06 18:25:22;;;;;;;14.4;12.2;;;;;;;13.49;52.27441;947.4941;;;;
2019/04/06 18:27:47;;;;;;;15.7;10.9;;;;;;;13.58;51.63672;947.5053;;;;
2019/04/06 18:30:12;;;;;;;13.4;11;;;;;;;13.3;52.25195;947.5544;;;;
2019/04/06 18:32:50;;;;;;;13.7;11.5;;;;;;;13.38;52.02734;947.5721;;;;
2019/04/06 18:35:03;;;;;;;14.1;11.6;;;;;;;13.36;51.86816;947.6046;;;;
2019/04/06 18:37:42;;;;;;;13.6;11.3;;;;;;;13.38;51.69141;947.658;;;;
2019/04/06 18:39:54;;;;;;;19.2;12.2;;;;;;;13.27;51.90332;947.6492;;;;
2019/04/06 18:42:19;;;;;;;15.4;12;;;;;;;13.26;51.64355;947.6556;;;;
2019/04/06 18:44:44;;;;;;;15.6;12.7;;;;;;;13.29;51.24414;947.6688;;;;
2019/04/06 18:47:09;;;;;;;18.2;14.3;;;;;;;13.39;51.0332;947.6649;;;;
2019/04/06 18:49:36;;;;;;;16.5;12.9;;;;;;;13.33;51.02637;947.6746;;;;
2019/04/06 18:52:01;;;;;;;18.3;13.1;;;;;;;12.93;51.96191;947.6733;;;;
2019/04/06 18:54:27;;;;;;;17.4;12.4;;;;;;;12.83;52.19629;947.7709;;;;
2019/04/06 18:56:53;;;;;;;15.6;12.4;;;;;;;13.16;51.24023;947.767;;;;
2019/04/06 18:59:20;;;;;;;16.1;12.7;;;;;;;13.19;50.9873;947.8262;;;;
2019/04/06 19:01:45;;;;;;;18.1;12.8;;;;;;;13.01;51.42383;947.803;;;;
2019/04/06 19:04:10;;;;;;;16.4;13;;;;;;;12.77;52.16602;947.8624;;;;
2019/04/06 19:06:38;;;;;;;15.6;12.7;;;;;;;12.9;51.84766;947.855;;;;
2019/04/06 19:09:11;;;;;;;18.1;13.8;;;;;;;12.86;51.94238;947.7921;;;;
2019/04/06 19:11:36;;;;;;;17.5;14.5;;;;;;;12.71;52.53906;947.842;;;;
2019/04/06 19:14:01;;;;;;;16.6;12.9;;;;;;;12.5;53.0498;947.8091;;;;
2019/04/06 19:16:26;;;;;;;14.3;12.2;;;;;;;12.59;52.83887;947.8727;;;;
2019/04/06 19:18:52;;;;;;;18.4;14.1;;;;;;;12.65;52.63184;947.8904;;;;
2019/04/06 19:21:17;;;;;;;19.6;13.7;;;;;;;12.6;52.80566;947.8884;;;;
2019/04/06 19:23:42;;;;;;;18.8;14.1;;;;;;;12.67;52.63477;947.8569;;;;
2019/04/06 19:26:07;;;;;;;15.2;13;;;;;;;12.6;52.86133;947.8027;;;;
2019/04/06 19:28:35;;;;;;;15.6;12.9;;;;;;;12.48;53.15918;947.8727;;;;
2019/04/06 19:31:00;;;;;;;15.4;13.1;;;;;;;12.31;53.91895;947.7789;;;;
2019/04/06 19:33:25;;;;;;;16.5;14.2;;;;;;;12.31;54.08691;947.7438;;;;
2019/04/06 19:35:50;;;;;;;16.9;14;;;;;;;12.36;54.33887;947.7837;;;;
2019/04/06 19:38:15;;;;;;;18.6;14.2;;;;;;;12.39;54.29785;947.8008;;;;
2019/04/06 19:40:40;;;;;;;18.4;14.6;;;;;;;12.59;53.51758;947.7181;;;;
2019/04/06 19:43:06;;;;;;;17.2;13.6;;;;;;;12.7;52.92969;947.8172;;;;
2019/04/06 19:45:31;;;;;;;15.7;13.4;;;;;;;12.36;53.73633;947.7876;;;;
2019/04/06 19:47:57;;;;;;;16.2;13.7;;;;;;;12.22;54.2207;947.705;;;;
2019/04/06 19:50:22;;;;;;;16.1;13.3;;;;;;;11.96;54.98047;947.7539;;;;
2019/04/06 19:52:47;;;;;;;15.9;13.3;;;;;;;11.96;55.10254;947.6721;;;;
2019/04/06 19:55:12;;;;;;;18;13.8;;;;;;;11.98;55.0498;947.6956;;;;
2019/04/06 19:57:37;;;;;;;23.4;15.8;;;;;;;12.04;54.82324;947.6891;;;;
2019/04/06 20:00:03;;;;;;;28.2;18.4;;;;;;;11.93;55.2334;947.6329;;;;
2019/04/06 20:02:27;;;;;;;20;15.6;;;;;;;11.88;55.32715;947.606;;;;
2019/04/06 20:04:54;;;;;;;20;15;;;;;;;12.04;54.83496;947.6072;;;;
2019/04/06 20:07:19;;;;;;;16;13.2;;;;;;;11.94;55.25684;947.5187;;;;
2019/04/06 20:09:45;;;;;;;19.5;15.6;;;;;;;11.74;55.98828;947.5112;;;;
2019/04/06 20:12:10;;;;;;;15.5;13.3;;;;;;;11.92;55.72168;947.4886;;;;
2019/04/06 20:14:35;;;;;;;17.6;14.1;;;;;;;12.08;55.36328;947.5016;;;;
2019/04/06 20:17:00;;;;;;;17.5;15.2;;;;;;;11.95;56.19531;947.4826;;;;
2019/04/06 20:19:25;;;;;;;17.6;14.6;;;;;;;12.11;55.2998;947.4669;;;;
2019/04/06 20:21:56;;;;;;;18.6;15.3;;;;;;;12.04;55.40234;947.4397;;;;
2019/04/06 20:24:22;;;;;;;19;16.1;;;;;;;12.38;54.10645;947.3865;;;;
2019/04/06 20:26:47;;;;;;;20;16.2;;;;;;;12.54;53.45703;947.3873;;;;
2019/04/06 20:29:12;;;;;;;16.8;13.6;;;;;;;12.44;53.44434;947.39;;;;
2019/04/06 20:31:37;;;;;;;17.6;12.8;;;;;;;12.1;54.58496;947.4381;;;;
2019/04/06 20:34:02;;;;;;;16.8;14.1;;;;;;;11.86;55.77051;947.4189;;;;
2019/04/06 20:36:27;;;;;;;18.8;14.4;;;;;;;11.84;55.87891;947.3745;;;;
2019/04/06 20:38:52;;;;;;;18.1;13.9;;;;;;;11.61;56.22852;947.3961;;;;
2019/04/06 20:41:17;;;;;;;18;13.5;;;;;;;11.52;56.60645;947.3803;;;;
2019/04/06 20:43:43;;;;;;;18.6;13.7;;;;;;;11.55;56.52148;947.4015;;;;
2019/04/06 20:46:08;;;;;;;20;14.5;;;;;;;11.47;56.91113;947.3754;;;;
2019/04/06 20:48:33;;;;;;;16.8;14.1;;;;;;;11.5;56.60449;947.3658;;;;
2019/04/06 20:50:58;;;;;;;17.5;13.2;;;;;;;11.42;57.35059;947.3786;;;;
2019/04/06 20:53:23;;;;;;;17.6;13.6;;;;;;;11.29;57.87988;947.3244;;;;
2019/04/06 20:55:48;;;;;;;16.4;13;;;;;;;11.12;58.05762;947.3406;;;;
2019/04/06 20:58:13;;;;;;;16.5;14;;;;;;;11.02;58.07617;947.3309;;;;
2019/04/06 21:00:38;;;;;;;16.5;12.8;;;;;;;11.06;57.75977;947.3497;;;;
2019/04/06 21:03:03;;;;;;;13;11;;;;;;;11.01;57.54102;947.3709;;;;
2019/04/06 21:05:29;;;;;;;14;10.9;;;;;;;11;57.46289;947.3721;;;;
2019/04/06 21:07:54;;;;;;;11.7;10.3;;;;;;;10.88;57.89063;947.3954;;;;
2019/04/06 21:10:19;;;;;;;14.3;10.4;;;;;;;10.85;57.86523;947.3558;;;;
2019/04/06 21:12:44;;;;;;;12.6;9.5;;;;;;;10.88;57.56836;947.4124;;;;
2019/04/06 21:15:10;;;;;;;13.4;9.9;;;;;;;10.92;57.44043;947.3667;;;;
2019/04/06 21:17:35;;;;;;;11.5;9.4;;;;;;;10.93;57.12891;947.3317;;;;
2019/04/06 21:20:01;;;;;;;11.9;9.7;;;;;;;10.84;57.39746;947.4128;;;;
2019/04/06 21:22:26;;;;;;;12.3;9.5;;;;;;;10.8;57.40234;947.3848;;;;
2019/04/06 21:24:51;;;;;;;11.3;9.2;;;;;;;10.72;57.69336;947.4053;;;;
2019/04/06 21:27:16;;;;;;;11.4;9.1;;;;;;;10.73;57.51465;947.491;;;;
2019/04/06 21:29:41;;;;;;;11.4;9;;;;;;;10.65;57.67188;947.5023;;;;
2019/04/06 21:32:06;;;;;;;11.9;9.3;;;;;;;10.83;57.26172;947.4799;;;;
2019/04/06 21:34:31;;;;;;;12.2;9.7;;;;;;;10.8;57.21191;947.4677;;;;
2019/04/06 21:36:57;;;;;;;12.4;9.6;;;;;;;10.7;57.55566;947.4992;;;;
2019/04/06 21:39:22;;;;;;;12.6;8.9;;;;;;;10.57;57.79395;947.4238;;;;
2019/04/06 21:41:47;;;;;;;9.7;8.2;;;;;;;10.6;57.61035;947.4881;;;;
2019/04/06 21:44:12;;;;;;;11.1;8.4;;;;;;;10.7;57.21094;947.4941;;;;
2019/04/06 21:46:37;;;;;;;9.7;8.1;;;;;;;10.3;58.28027;947.4984;;;;
2019/04/06 21:49:02;;;;;;;12.7;8.3;;;;;;;10.39;57.81348;947.468;;;;
2019/04/06 21:51:27;;;;;;;10.3;7.6;;;;;;;10.24;57.94922;947.5074;;;;
2019/04/06 21:53:53;;;;;;;9.3;8.1;;;;;;;10.33;57.54004;947.455;;;;
2019/04/06 21:56:18;;;;;;;9.8;8.5;;;;;;;10.4;57.2832;947.4657;;;;
2019/04/06 21:58:45;;;;;;;13;8.7;;;;;;;10.39;57.2373;947.428;;;;
2019/04/06 22:01:10;;;;;;;8.4;7.5;;;;;;;10.41;57.15039;947.4386;;;;
2019/04/06 22:03:35;;;;;;;9.5;7.2;;;;;;;10.52;56.66504;947.4995;;;;
2019/04/06 22:06:01;;;;;;;8.4;7.4;;;;;;;10.51;56.80859;947.4449;;;;
2019/04/06 22:08:26;;;;;;;9.2;8;;;;;;;10.53;56.75586;947.4336;;;;
2019/04/06 22:10:51;;;;;;;10;8.2;;;;;;;10.46;56.69043;947.4139;;;;
2019/04/06 22:13:16;;;;;;;8.9;7.2;;;;;;;10.28;57.08887;947.4099;;;;
2019/04/06 22:15:41;;;;;;;8.5;6.9;;;;;;;10.51;56.35254;947.4967;;;;
2019/04/06 22:18:06;;;;;;;8.3;6.7;;;;;;;10.53;56.31055;947.5333;;;;
2019/04/06 22:20:31;;;;;;;9.8;6.8;;;;;;;10.5;56.34082;947.5159;;;;
2019/04/06 22:22:56;;;;;;;8.4;6.2;;;;;;;10.7;55.57617;947.5122;;;;
2019/04/06 22:25:21;;;;;;;8.2;6.1;;;;;;;10.39;56.39258;947.5237;;;;
2019/04/06 22:27:47;;;;;;;8.7;6.8;;;;;;;10.35;56.58691;947.5809;;;;
2019/04/06 22:30:12;;;;;;;8.1;6.1;;;;;;;10.26;56.88672;947.6114;;;;
2019/04/06 22:32:37;;;;;;;7.7;5.6;;;;;;;10.14;57.08203;947.5463;;;;
2019/04/06 22:35:02;;;;;;;7.2;5.9;;;;;;;10;57.46191;947.5764;;;;
2019/04/06 22:37:27;;;;;;;8.5;6.4;;;;;;;10.05;57.25879;947.5519;;;;
2019/04/06 22:39:53;;;;;;;8.2;6.9;;;;;;;10.07;57.41602;947.5652;;;;
2019/04/06 22:42:18;;;;;;;10;8.5;;;;;;;10.09;57.1748;947.4249;;;;
2019/04/06 22:44:43;;;;;;;11.9;9.5;;;;;;;10.15;56.96094;947.4419;;;;
2019/04/06 22:47:08;;;;;;;15.2;10.3;;;;;;;9.9;57.81445;947.4138;;;;
2019/04/06 22:49:33;;;;;;;10.9;8.7;;;;;;;9.91;57.75195;947.3469;;;;
2019/04/06 22:51:58;;;;;;;10;6.6;;;;;;;9.82;58.01563;947.3654;;;;
2019/04/06 22:54:23;;;;;;;7.6;5.8;;;;;;;9.85;58.16406;947.3608;;;;
2019/04/06 22:56:48;;;;;;;8.6;5.4;;;;;;;9.82;58.02832;947.4081;;;;
2019/04/06 22:59:13;;;;;;;6.8;5;;;;;;;9.66;58.41602;947.4495;;;;
2019/04/06 23:01:39;;;;;;;8.8;5.5;;;;;;;9.72;58.11328;947.4313;;;;
2019/04/06 23:04:52;;;;;;;8.7;5.7;;;;;;;9.61;58.4873;947.3953;;;;
2019/04/06 23:06:38;;;;;;;7.4;5.6;;;;;;;9.58;58.62793;947.3736;;;;
2019/04/06 23:08:54;;;;;;;7.3;5.3;;;;;;;9.66;58.41602;947.3021;;;;
2019/04/06 23:11:19;;;;;;;5.8;5;;;;;;;9.64;58.45801;947.3519;;;;
2019/04/06 23:13:46;;;;;;;9.3;4.7;;;;;;;9.68;58.31836;947.3723;;;;
2019/04/06 23:16:11;;;;;;;5.8;4.6;;;;;;;9.57;58.84668;947.3063;;;;
2019/04/06 23:18:37;;;;;;;8.7;5.3;;;;;;;9.73;58.19141;947.3091;;;;
2019/04/06 23:21:02;;;;;;;9.3;6.7;;;;;;;9.84;57.73047;947.34;;;;
2019/04/06 23:23:27;;;;;;;6.9;5.4;;;;;;;9.8;57.85742;947.3339;;;;
2019/04/06 23:25:52;;;;;;;7.7;5.7;;;;;;;9.75;58.04004;947.3455;;;;
2019/04/06 23:28:18;;;;;;;7.6;6;;;;;;;9.74;57.88379;947.3546;;;;
2019/04/06 23:30:43;;;;;;;7.5;6.1;;;;;;;9.66;58.33789;947.3318;;;;
2019/04/06 23:33:08;;;;;;;10.9;7.2;;;;;;;9.71;58.14453;947.347;;;;
2019/04/06 23:35:33;;;;;;;7.3;6.2;;;;;;;9.86;57.48828;947.3636;;;;
2019/04/06 23:37:58;;;;;;;6.8;6.1;;;;;;;10.01;56.87598;947.2899;;;;
2019/04/06 23:40:23;;;;;;;9.3;7.1;;;;;;;10.03;57.21289;947.3641;;;;
2019/04/06 23:42:49;;;;;;;8.1;6.5;;;;;;;9.7;58.55371;947.387;;;;
2019/04/06 23:45:15;;;;;;;9;6.9;;;;;;;9.59;58.68359;947.4077;;;;
2019/04/06 23:47:40;;;;;;;9.2;6.5;;;;;;;9.71;58.02246;947.3937;;;;
2019/04/06 23:50:05;;;;;;;10.1;7.1;;;;;;;9.65;58.21484;947.3895;;;;
2019/04/06 23:52:30;;;;;;;8.4;7;;;;;;;9.57;58.28223;947.3747;;;;
2019/04/06 23:54:55;;;;;;;10.2;6.8;;;;;;;9.46;58.64453;947.3695;;;;
2019/04/06 23:57:22;;;;;;;9.6;7.9;;;;;;;9.33;59.32422;947.4011;;;;
2019/04/06 23:59:47;;;;;;;7.6;6.5;;;;;;;9.21;60.17188;947.337;;;;
